Time;durP1;ratioP1;P1;durP2;ratioP2;P2;SDS_P1;SDS_P2;PMS_P1;PMS_P2;Temp;Humidity;BMP_temperature;BMP_pressure;BME280_temperature;BME280_humidity;BME280_pressure;Samples;Min_cycle;Max_cycle;Signal;HPM_P1;HPM_P2
2022/02/16 00:01:00;;;;;;;181.00;120.30;;;;;;;1.61;95.17;98749.08;105195;1270;69443;-71
2022/02/16 00:03:26;;;;;;;175.00;118.60;;;;;;;1.63;95.47;98751.81;105165;1270;73482;-70
2022/02/16 00:05:53;;;;;;;182.50;123.80;;;;;;;1.64;95.58;98757.19;105143;1270;61250;-70
2022/02/16 00:08:20;;;;;;;185.30;121.20;;;;;;;1.67;95.65;98757.79;104919;1270;61921;-70
2022/02/16 00:10:47;;;;;;;188.60;121.60;;;;;;;1.72;95.72;98754.31;105068;1270;75118;-70
2022/02/16 00:13:13;;;;;;;189.50;123.60;;;;;;;1.75;95.78;98750.17;105199;1270;68190;-71
2022/02/16 00:15:40;;;;;;;184.80;117.20;;;;;;;1.76;95.76;98748.73;105197;1270;61388;-70
2022/02/16 00:18:07;;;;;;;185.50;119.40;;;;;;;1.77;95.77;98749.95;105148;1270;61372;-71
2022/02/16 00:20:34;;;;;;;195.60;123.50;;;;;;;1.77;95.83;98747.81;105149;1270;61308;-71
2022/02/16 00:23:02;;;;;;;224.30;140.00;;;;;;;1.79;95.92;98745.64;105146;1270;75107;-71
2022/02/16 00:25:28;;;;;;;235.60;146.20;;;;;;;1.83;96.31;98741.83;105063;1270;70204;-69
2022/02/16 00:27:55;;;;;;;209.40;136.50;;;;;;;1.86;96.46;98732.42;105126;1270;74318;-70
2022/02/16 00:30:22;;;;;;;230.20;144.70;;;;;;;1.89;96.44;98731.11;104822;1274;61411;-70
2022/02/16 00:32:48;;;;;;;197.40;128.40;;;;;;;1.90;96.38;98733.52;104853;1274;61218;-70
2022/02/16 00:35:15;;;;;;;225.30;142.50;;;;;;;1.90;96.33;98735.45;104801;1274;75284;-70
2022/02/16 00:37:42;;;;;;;237.10;147.90;;;;;;;1.90;96.44;98736.66;104835;1274;70419;-70
2022/02/16 00:40:09;;;;;;;202.30;128.40;;;;;;;1.91;96.42;98740.99;104616;1276;72790;-69
2022/02/16 00:42:36;;;;;;;226.30;142.40;;;;;;;1.91;96.40;98738.71;104941;1274;61366;-71
2022/02/16 00:45:03;;;;;;;224.30;144.30;;;;;;;1.92;96.40;98733.45;104826;1274;61359;-69
2022/02/16 00:47:30;;;;;;;221.00;141.20;;;;;;;1.91;96.55;98738.90;104694;1274;75454;-70
2022/02/16 00:49:56;;;;;;;236.00;145.60;;;;;;;1.93;96.57;98734.80;104899;1274;69353;-70
2022/02/16 00:52:23;;;;;;;219.40;142.10;;;;;;;1.95;96.68;98734.93;104881;1275;74412;-71
2022/02/16 00:54:49;;;;;;;230.70;143.90;;;;;;;1.95;96.71;98734.21;104855;1274;61760;-70
2022/02/16 00:57:16;;;;;;;229.00;145.00;;;;;;;1.96;96.63;98729.27;104885;1274;61391;-69
2022/02/16 00:59:44;;;;;;;216.80;138.10;;;;;;;1.96;96.67;98721.02;104842;1274;74729;-70
2022/02/16 01:02:10;;;;;;;226.10;142.50;;;;;;;1.96;96.68;98723.66;104660;1277;69412;-69
2022/02/16 01:04:37;;;;;;;241.70;150.50;;;;;;;1.94;96.85;98716.18;104710;1276;72712;-69
2022/02/16 01:07:04;;;;;;;244.60;155.60;;;;;;;1.93;97.39;98715.89;104693;1275;61484;-70
2022/02/16 01:09:30;;;;;;;240.60;152.40;;;;;;;1.92;97.81;98716.80;104832;1271;61364;-70
2022/02/16 01:11:57;;;;;;;244.60;158.20;;;;;;;1.92;98.15;98714.17;105113;1270;74170;-69
2022/02/16 01:14:24;;;;;;;274.00;168.00;;;;;;;1.92;98.14;98718.38;104994;1270;69406;-70
2022/02/16 01:16:50;;;;;;;314.70;186.40;;;;;;;1.90;98.17;98717.77;105120;1270;72411;-70
2022/02/16 01:19:17;;;;;;;270.10;167.10;;;;;;;1.87;98.16;98709.27;105112;1270;61409;-69
2022/02/16 01:21:43;;;;;;;235.90;156.70;;;;;;;1.87;98.06;98707.17;105144;1270;61318;-70
2022/02/16 01:24:10;;;;;;;240.50;160.50;;;;;;;1.88;98.09;98700.98;105136;1270;61214;-70
2022/02/16 01:26:36;;;;;;;242.90;161.90;;;;;;;1.88;97.93;98690.66;105132;1270;61506;-69
2022/02/16 01:29:03;;;;;;;241.60;158.80;;;;;;;1.89;97.97;98681.54;104940;1273;61299;-69
2022/02/16 01:31:29;;;;;;;234.70;160.90;;;;;;;1.90;97.99;98676.77;105117;1270;61368;-70
2022/02/16 01:33:56;;;;;;;240.10;161.60;;;;;;;1.89;97.97;98674.86;105082;1270;61324;-70
2022/02/16 01:36:22;;;;;;;252.60;169.80;;;;;;;1.88;98.00;98673.67;105134;1270;61258;-70
2022/02/16 01:38:49;;;;;;;239.70;159.20;;;;;;;1.88;97.97;98663.86;105076;1270;61326;-70
2022/02/16 01:41:16;;;;;;;238.30;157.90;;;;;;;1.85;98.03;98663.10;105084;1270;73459;-69
2022/02/16 01:43:51;;;;;;;244.50;158.80;;;;;;;1.82;98.08;98660.59;105128;1270;61371;-71
2022/02/16 01:46:18;;;;;;;237.00;157.40;;;;;;;1.80;98.19;98658.04;105004;1270;61146;-70
2022/02/16 01:48:45;;;;;;;237.60;155.60;;;;;;;1.79;98.28;98653.70;105116;1270;76176;-69
2022/02/16 01:51:12;;;;;;;236.00;151.00;;;;;;;1.76;98.28;98652.23;105147;1270;70761;-69
2022/02/16 01:53:39;;;;;;;247.40;155.90;;;;;;;1.73;98.33;98648.81;105120;1270;74310;-69
2022/02/16 01:56:06;;;;;;;251.00;163.90;;;;;;;1.69;98.35;98647.90;104944;1270;61330;-70
2022/02/16 01:58:34;;;;;;;253.10;161.60;;;;;;;1.65;98.34;98646.52;105157;1270;61428;-71
2022/02/16 02:01:03;;;;;;;250.30;162.80;;;;;;;1.60;98.41;98649.16;105202;1270;75101;-71
2022/02/16 02:03:30;;;;;;;258.20;166.30;;;;;;;1.58;98.63;98646.59;105346;1270;67531;-70
2022/02/16 02:05:57;;;;;;;250.00;162.60;;;;;;;1.59;98.83;98649.00;105077;1270;73162;-71
2022/02/16 02:08:24;;;;;;;252.60;166.80;;;;;;;1.60;99.04;98649.67;104893;1270;61404;-70
2022/02/16 02:10:52;;;;;;;259.20;166.80;;;;;;;1.63;99.23;98647.46;105007;1270;61272;-70
2022/02/16 02:13:19;;;;;;;257.20;167.80;;;;;;;1.63;99.42;98644.64;105257;1270;74952;-70
2022/02/16 02:15:46;;;;;;;250.70;161.60;;;;;;;1.62;99.55;98648.17;105263;1270;69190;-70
2022/02/16 02:18:17;;;;;;;259.30;165.20;;;;;;;1.62;99.97;98649.23;105117;1271;73506;-70
2022/02/16 02:20:44;;;;;;;238.60;164.00;;;;;;;1.62;99.99;98650.45;105147;1270;61317;-70
2022/02/16 02:23:12;;;;;;;250.80;160.70;;;;;;;1.64;100.00;98652.13;105342;1270;61504;-70
2022/02/16 02:25:50;;;;;;;256.70;165.50;;;;;;;1.67;100.00;98649.93;104909;1270;75054;-71
2022/02/16 02:28:20;;;;;;;252.10;162.90;;;;;;;1.69;100.00;98649.88;105100;1270;70282;-71
2022/02/16 02:30:47;;;;;;;250.30;162.80;;;;;;;1.70;100.00;98648.78;105231;1270;74188;-71
2022/02/16 02:33:15;;;;;;;238.50;156.50;;;;;;;1.71;100.00;98647.48;105157;1270;61276;-71
2022/02/16 02:35:43;;;;;;;237.90;155.00;;;;;;;1.73;100.00;98642.89;105237;1270;61355;-71
2022/02/16 02:38:09;;;;;;;245.00;159.50;;;;;;;1.74;100.00;98642.31;105338;1270;75294;-71
2022/02/16 02:40:36;;;;;;;241.90;157.90;;;;;;;1.75;100.00;98641.07;104913;1271;70283;-71
2022/02/16 02:43:03;;;;;;;236.00;156.10;;;;;;;1.75;100.00;98639.86;104848;1270;71571;-71
2022/02/16 02:45:30;;;;;;;239.10;155.40;;;;;;;1.74;100.00;98639.67;105015;1270;61323;-71
2022/02/16 02:47:56;;;;;;;234.40;154.30;;;;;;;1.73;100.00;98640.77;105096;1270;61175;-71
2022/02/16 02:50:23;;;;;;;235.90;152.80;;;;;;;1.70;100.00;98639.65;105111;1270;61329;-71
2022/02/16 02:52:50;;;;;;;230.70;151.90;;;;;;;1.68;100.00;98641.50;105124;1270;69610;-71
2022/02/16 02:55:17;;;;;;;246.00;156.60;;;;;;;1.66;100.00;98639.10;105137;1270;74487;-71
2022/02/16 02:57:44;;;;;;;235.10;155.50;;;;;;;1.69;100.00;98638.64;105168;1270;61397;-70
2022/02/16 03:00:29;;;;;;;238.90;154.50;;;;;;;1.71;100.00;98639.97;105086;1270;61242;-71
2022/02/16 03:02:56;;;;;;;237.60;157.30;;;;;;;1.73;100.00;98641.63;105037;1270;75383;-73
2022/02/16 03:05:23;;;;;;;244.40;155.60;;;;;;;1.73;100.00;98641.13;105095;1270;69855;-72
2022/02/16 03:07:50;;;;;;;236.00;151.80;;;;;;;1.72;100.00;98639.92;105190;1270;61287;-70
2022/02/16 03:10:17;;;;;;;225.20;147.60;;;;;;;1.72;100.00;98638.70;104924;1270;61473;-69
2022/02/16 03:12:43;;;;;;;227.50;153.00;;;;;;;1.70;100.00;98635.64;105148;1270;61423;-72
2022/02/16 03:15:11;;;;;;;233.80;155.00;;;;;;;1.70;100.00;98633.18;105131;1270;76330;-71
2022/02/16 03:17:38;;;;;;;231.40;154.20;;;;;;;1.72;100.00;98632.75;105162;1270;68180;-72
2022/02/16 03:20:06;;;;;;;222.60;149.60;;;;;;;1.75;100.00;98635.10;105096;1270;74303;-69
2022/02/16 03:22:34;;;;;;;235.40;156.50;;;;;;;1.74;100.00;98633.55;105154;1270;61258;-70
2022/02/16 03:25:01;;;;;;;231.60;153.70;;;;;;;1.77;100.00;98630.13;105160;1270;61348;-69
2022/02/16 03:27:28;;;;;;;227.10;153.50;;;;;;;1.80;100.00;98628.27;105126;1270;76355;-69
2022/02/16 03:29:55;;;;;;;224.20;149.90;;;;;;;1.82;100.00;98622.58;105127;1270;69899;-69
2022/02/16 03:32:22;;;;;;;229.20;155.60;;;;;;;1.83;100.00;98625.33;105146;1270;73598;-70
2022/02/16 03:34:49;;;;;;;217.00;150.80;;;;;;;1.83;100.00;98626.92;104911;1271;61485;-69
2022/02/16 03:37:16;;;;;;;221.90;151.80;;;;;;;1.82;100.00;98631.51;105140;1270;61164;-69
2022/02/16 03:39:43;;;;;;;228.70;151.10;;;;;;;1.82;100.00;98631.50;105133;1270;61221;-71
2022/02/16 03:42:10;;;;;;;235.80;155.10;;;;;;;1.81;100.00;98636.12;105124;1270;69160;-70
2022/02/16 03:44:37;;;;;;;232.30;151.90;;;;;;;1.81;100.00;98633.30;105229;1270;73464;-70
2022/02/16 03:47:04;;;;;;;224.80;150.40;;;;;;;1.86;100.00;98627.35;105164;1270;61404;-71
2022/02/16 03:49:30;;;;;;;227.40;149.40;;;;;;;1.91;100.00;98627.48;105149;1270;61231;-71
2022/02/16 03:51:57;;;;;;;223.20;146.00;;;;;;;1.98;100.00;98627.59;105116;1270;75220;-71
2022/02/16 03:54:24;;;;;;;218.70;147.70;;;;;;;2.06;100.00;98632.38;104911;1271;69177;-70
2022/02/16 03:56:51;;;;;;;221.90;145.50;;;;;;;2.11;100.00;98623.41;105119;1270;72385;-70
2022/02/16 03:59:18;;;;;;;220.80;146.90;;;;;;;2.13;100.00;98625.25;105155;1270;61321;-71
2022/02/16 04:01:45;;;;;;;218.00;146.40;;;;;;;2.15;100.00;98628.33;105156;1270;61269;-71
2022/02/16 04:04:11;;;;;;;196.90;134.20;;;;;;;2.19;100.00;98628.52;105148;1270;75272;-71
2022/02/16 04:06:38;;;;;;;207.70;137.50;;;;;;;2.25;100.00;98624.61;105139;1270;69275;-71
2022/02/16 04:09:05;;;;;;;192.60;130.20;;;;;;;2.30;100.00;98620.58;105158;1270;73338;-70
2022/02/16 04:11:31;;;;;;;190.30;129.90;;;;;;;2.34;100.00;98627.76;105146;1270;61275;-70
2022/02/16 04:13:58;;;;;;;200.70;136.90;;;;;;;2.39;100.00;98622.13;104983;1271;61210;-71
2022/02/16 04:16:24;;;;;;;193.20;130.80;;;;;;;2.42;100.00;98612.55;104928;1271;61387;-70
2022/02/16 04:18:51;;;;;;;187.50;126.70;;;;;;;2.43;100.00;98606.56;105139;1270;70305;-71
2022/02/16 04:21:18;;;;;;;175.00;117.10;;;;;;;2.44;100.00;98608.10;105109;1270;61409;-72
2022/02/16 04:23:44;;;;;;;188.60;123.30;;;;;;;2.48;100.00;98605.30;105133;1270;61318;-71
2022/02/16 04:26:11;;;;;;;184.50;124.10;;;;;;;2.52;100.00;98603.89;105147;1270;61364;-71
2022/02/16 04:28:38;;;;;;;190.50;125.70;;;;;;;2.54;100.00;98598.39;105119;1270;76339;-72
2022/02/16 04:31:04;;;;;;;170.10;117.60;;;;;;;2.56;100.00;98594.45;105123;1270;70781;-70
2022/02/16 04:33:31;;;;;;;168.30;111.30;;;;;;;2.56;100.00;98595.32;105053;1270;72921;-71
2022/02/16 04:35:58;;;;;;;165.20;112.50;;;;;;;2.58;100.00;98595.58;104876;1270;61351;-70
2022/02/16 04:38:24;;;;;;;132.90;90.20;;;;;;;2.61;100.00;98594.75;105122;1270;61222;-71
2022/02/16 04:40:51;;;;;;;108.00;71.70;;;;;;;2.65;100.00;98593.90;105157;1270;75259;-71
2022/02/16 04:43:18;;;;;;;103.30;66.70;;;;;;;2.71;100.00;98598.73;105132;1270;69387;-71
2022/02/16 04:45:44;;;;;;;99.00;64.60;;;;;;;2.79;100.00;98599.98;105088;1270;73516;-71
2022/02/16 04:48:11;;;;;;;99.60;64.80;;;;;;;2.87;100.00;98602.11;104897;1270;61371;-71
2022/02/16 04:50:37;;;;;;;100.70;65.90;;;;;;;2.95;100.00;98600.19;105146;1270;61243;-70
2022/02/16 04:53:04;;;;;;;103.20;64.50;;;;;;;3.02;100.00;98600.92;105123;1270;76085;-70
2022/02/16 04:55:31;;;;;;;102.50;69.40;;;;;;;3.08;100.00;98598.05;105153;1270;68651;-69
2022/02/16 04:57:57;;;;;;;98.80;67.70;;;;;;;3.14;100.00;98595.69;105147;1270;74407;-70
2022/02/16 05:00:25;;;;;;;95.00;65.20;;;;;;;3.19;100.00;98593.03;105140;1270;61423;-71
2022/02/16 05:02:52;;;;;;;87.90;58.30;;;;;;;3.24;100.00;98596.67;105059;1270;61154;-71
2022/02/16 05:05:19;;;;;;;83.60;54.50;;;;;;;3.28;100.00;98594.54;105028;1270;75633;-71
2022/02/16 05:07:45;;;;;;;82.00;53.20;;;;;;;3.34;100.00;98590.45;105087;1270;69447;-71
2022/02/16 05:10:12;;;;;;;81.40;52.40;;;;;;;3.38;100.00;98594.64;104913;1270;74477;-70
2022/02/16 05:12:40;;;;;;;74.00;50.00;;;;;;;3.41;100.00;98590.11;105082;1270;61407;-71
2022/02/16 05:15:08;;;;;;;71.20;47.30;;;;;;;3.45;100.00;98590.10;105132;1270;61173;-70
2022/02/16 05:17:35;;;;;;;71.40;48.20;;;;;;;3.49;100.00;98590.14;105161;1270;75122;-71
2022/02/16 05:20:04;;;;;;;70.90;47.70;;;;;;;3.51;100.00;98588.77;105138;1270;70401;-71
2022/02/16 05:22:30;;;;;;;74.70;49.90;;;;;;;3.55;100.00;98584.44;105151;1270;74321;-71
2022/02/16 05:24:57;;;;;;;87.70;57.80;;;;;;;3.55;100.00;98581.63;104869;1270;61323;-71
2022/02/16 05:27:23;;;;;;;88.50;59.20;;;;;;;3.55;100.00;98583.17;105148;1270;61366;-73
2022/02/16 05:29:50;;;;;;;91.40;61.50;;;;;;;3.55;100.00;98584.77;105203;1270;61374;-71
2022/02/16 05:32:16;;;;;;;91.90;62.20;;;;;;;3.56;100.00;98585.25;105106;1270;61375;-71
2022/02/16 05:34:43;;;;;;;96.60;64.10;;;;;;;3.56;100.00;98587.90;105108;1270;74196;-71
2022/02/16 05:37:10;;;;;;;95.10;64.00;;;;;;;3.56;100.00;98586.50;105119;1269;61381;-70
2022/02/16 05:39:37;;;;;;;91.60;66.70;;;;;;;3.55;100.00;98581.96;105180;1270;61266;-70
2022/02/16 05:42:04;;;;;;;93.90;61.70;;;;;;;3.55;100.00;98584.91;105147;1270;75156;-69
2022/02/16 05:44:30;;;;;;;87.50;58.00;;;;;;;3.56;100.00;98585.08;104957;1270;69330;-71
2022/02/16 05:46:57;;;;;;;84.10;60.00;;;;;;;3.56;100.00;98581.39;105164;1270;73460;-71
2022/02/16 05:49:23;;;;;;;80.60;55.20;;;;;;;3.56;100.00;98584.19;104882;1270;61243;-70
2022/02/16 05:51:50;;;;;;;81.70;54.80;;;;;;;3.56;100.00;98582.98;105083;1270;61690;-72
2022/02/16 05:54:17;;;;;;;86.50;57.20;;;;;;;3.57;100.00;98581.70;105136;1270;76338;-71
2022/02/16 05:56:43;;;;;;;88.50;57.20;;;;;;;3.57;100.00;98573.62;105009;1270;61292;-71
2022/02/16 05:59:11;;;;;;;82.80;55.20;;;;;;;3.57;100.00;98570.48;105014;1270;61286;-71
2022/02/16 06:01:38;;;;;;;88.40;59.80;;;;;;;3.57;100.00;98569.77;105246;1270;61309;-73
2022/02/16 06:04:05;;;;;;;93.90;61.30;;;;;;;3.57;100.00;98571.01;105363;1270;61226;-74
2022/02/16 06:06:32;;;;;;;92.10;62.20;;;;;;;3.57;100.00;98572.73;105253;1271;76187;-77
2022/02/16 06:08:58;;;;;;;97.40;60.90;;;;;;;3.58;100.00;98576.39;105513;1270;68535;-79
2022/02/16 06:11:25;;;;;;;89.00;59.60;;;;;;;3.58;100.00;98581.98;105546;1269;73103;-79
2022/02/16 06:13:52;;;;;;;89.00;60.30;;;;;;;3.60;100.00;98585.97;105229;1270;61398;-74
2022/02/16 06:16:19;;;;;;;82.10;56.40;;;;;;;3.60;100.00;98588.06;105183;1270;61184;-74
2022/02/16 06:18:46;;;;;;;75.00;51.90;;;;;;;3.60;100.00;98585.08;105067;1270;76201;-73
2022/02/16 06:21:13;;;;;;;78.90;49.30;;;;;;;3.62;100.00;98580.95;105209;1270;70362;-74
2022/02/16 06:23:39;;;;;;;69.70;46.70;;;;;;;3.65;100.00;98577.27;105193;1270;73487;-73
2022/02/16 06:26:06;;;;;;;71.20;47.60;;;;;;;3.69;100.00;98577.09;105175;1270;61375;-72
2022/02/16 06:28:32;;;;;;;75.70;47.80;;;;;;;3.73;100.00;98571.44;105178;1270;61252;-73
2022/02/16 06:30:59;;;;;;;78.40;49.70;;;;;;;3.79;100.00;98571.93;105216;1270;61254;-72
2022/02/16 06:33:25;;;;;;;79.60;49.50;;;;;;;3.83;100.00;98570.50;105175;1270;61288;-73
2022/02/16 06:35:52;;;;;;;69.80;48.30;;;;;;;3.86;100.00;98562.79;105175;1270;74247;-73
2022/02/16 06:38:19;;;;;;;66.20;45.20;;;;;;;3.90;100.00;98559.10;105117;1270;61355;-73
2022/02/16 06:40:46;;;;;;;61.50;42.20;;;;;;;3.92;100.00;98552.31;105187;1270;61373;-72
2022/02/16 06:43:14;;;;;;;57.30;38.50;;;;;;;3.95;100.00;98546.71;105244;1270;75464;-72
2022/02/16 06:45:41;;;;;;;59.40;37.10;;;;;;;3.99;100.00;98548.13;105196;1270;69310;-72
2022/02/16 06:48:07;;;;;;;52.10;36.90;;;;;;;4.04;100.00;98543.67;105178;1270;61156;-72
2022/02/16 06:50:34;;;;;;;52.70;36.40;;;;;;;4.09;100.00;98544.48;105206;1270;61366;-73
2022/02/16 06:53:01;;;;;;;54.40;36.30;;;;;;;4.14;100.00;98540.91;105225;1270;61262;-73
2022/02/16 06:55:27;;;;;;;54.60;37.20;;;;;;;4.20;100.00;98537.64;105168;1270;74707;-73
2022/02/16 06:57:54;;;;;;;51.40;34.20;;;;;;;4.27;100.00;98533.60;105177;1270;69337;-74
2022/02/16 07:00:20;;;;;;;47.00;31.40;;;;;;;4.35;100.00;98528.98;104947;1270;72651;-72
2022/02/16 07:02:48;;;;;;;37.50;26.90;;;;;;;4.47;100.00;98521.73;105160;1270;61386;-74
2022/02/16 07:05:15;;;;;;;38.30;27.20;;;;;;;4.60;100.00;98517.71;105180;1270;61334;-74
2022/02/16 07:07:41;;;;;;;37.80;24.40;;;;;;;4.73;100.00;98514.09;105200;1270;75144;-74
2022/02/16 07:10:09;;;;;;;37.00;24.10;;;;;;;4.83;100.00;98512.67;105189;1270;70817;-72
2022/02/16 07:12:36;;;;;;;35.50;24.80;;;;;;;4.92;100.00;98511.33;105179;1270;74293;-74
2022/02/16 07:15:03;;;;;;;31.00;23.60;;;;;;;4.99;100.00;98509.90;105171;1270;61262;-72
2022/02/16 07:17:30;;;;;;;39.70;26.20;;;;;;;5.04;100.00;98510.36;105219;1270;61763;-72
2022/02/16 07:19:56;;;;;;;38.30;27.30;;;;;;;5.06;100.00;98500.92;105183;1270;76027;-74
2022/02/16 07:22:23;;;;;;;38.30;26.90;;;;;;;5.08;100.00;98502.02;104969;1270;61267;-74
2022/02/16 07:24:49;;;;;;;40.80;27.00;;;;;;;5.08;100.00;98500.26;105207;1270;73697;-73
2022/02/16 07:27:16;;;;;;;46.10;28.60;;;;;;;5.09;100.00;98501.65;105155;1270;61392;-74
2022/02/16 07:29:42;;;;;;;48.90;30.30;;;;;;;5.09;100.00;98494.78;105201;1270;62338;-73
2022/02/16 07:32:09;;;;;;;44.20;29.50;;;;;;;5.09;100.00;98497.93;105176;1270;61365;-72
2022/02/16 07:34:37;;;;;;;44.30;29.80;;;;;;;5.09;100.00;98496.36;104918;1270;69961;-72
2022/02/16 07:37:03;;;;;;;44.50;28.30;;;;;;;5.07;100.00;98491.70;105178;1270;73219;-73
2022/02/16 07:39:30;;;;;;;42.10;26.50;;;;;;;5.05;100.00;98494.81;105144;1270;61253;-72
2022/02/16 07:41:59;;;;;;;42.00;26.70;;;;;;;5.05;100.00;98487.74;105171;1270;61337;-72
2022/02/16 07:44:26;;;;;;;47.90;28.00;;;;;;;5.10;100.00;98483.64;105124;1270;75154;-73
2022/02/16 07:46:53;;;;;;;46.90;27.90;;;;;;;5.16;100.00;98485.41;105188;1270;69037;-72
2022/02/16 07:49:19;;;;;;;37.60;23.50;;;;;;;5.24;100.00;98484.65;104981;1270;61402;-74
2022/02/16 07:51:46;;;;;;;29.30;19.90;;;;;;;5.35;100.00;98483.02;105160;1270;61285;-73
2022/02/16 07:54:12;;;;;;;28.10;18.40;;;;;;;5.44;100.00;98479.84;105170;1270;61290;-74
2022/02/16 07:56:39;;;;;;;26.40;17.50;;;;;;;5.55;100.00;98473.64;105129;1270;76169;-72
2022/02/16 07:59:06;;;;;;;23.90;15.80;;;;;;;5.67;99.89;98468.59;105157;1270;69190;-73
2022/02/16 08:01:32;;;;;;;27.70;16.80;;;;;;;5.77;99.54;98463.25;105171;1270;73442;-73
2022/02/16 08:04:15;;;;;;;20.40;15.30;;;;;;;5.90;98.82;98465.54;104951;1270;61490;-72
2022/02/16 08:06:47;;;;;;;19.90;13.80;;;;;;;6.02;98.18;98464.17;105149;1270;61258;-74
2022/02/16 08:09:15;;;;;;;19.90;14.10;;;;;;;6.13;97.82;98463.20;105190;1270;76199;-74
2022/02/16 08:11:43;;;;;;;17.90;12.10;;;;;;;6.23;97.41;98460.66;105295;1270;70600;-74
2022/02/16 08:14:10;;;;;;;19.00;13.10;;;;;;;6.32;97.08;98455.02;105212;1270;72744;-73
2022/02/16 08:16:38;;;;;;;21.40;14.40;;;;;;;6.41;96.84;98454.70;105168;1270;62895;-73
2022/02/16 08:19:07;;;;;;;24.70;14.70;;;;;;;6.50;96.70;98444.42;105323;1270;61367;-74
2022/02/16 08:21:36;;;;;;;18.60;13.60;;;;;;;6.60;95.56;98443.13;105422;1270;75435;-72
2022/02/16 08:24:02;;;;;;;23.10;16.20;;;;;;;6.70;94.93;98436.71;104979;1270;69809;-73
2022/02/16 08:26:29;;;;;;;23.20;15.70;;;;;;;6.81;95.03;98436.98;105150;1270;74310;-73
2022/02/16 08:28:56;;;;;;;19.00;14.10;;;;;;;6.90;93.93;98434.11;105098;1270;61386;-73
2022/02/16 08:31:22;;;;;;;16.70;11.60;;;;;;;6.97;93.18;98432.43;105100;1270;61384;-73
2022/02/16 08:33:49;;;;;;;19.30;13.20;;;;;;;7.06;93.14;98428.70;105204;1270;75027;-73
2022/02/16 08:36:16;;;;;;;14.00;10.70;;;;;;;7.15;92.71;98426.95;105172;1270;69344;-73
2022/02/16 08:38:43;;;;;;;13.50;9.00;;;;;;;7.21;91.53;98423.73;105193;1270;73314;-74
2022/02/16 08:41:13;;;;;;;10.20;8.10;;;;;;;7.27;90.90;98423.86;105197;1270;61358;-74
2022/02/16 08:43:41;;;;;;;12.50;7.90;;;;;;;7.33;90.10;98420.64;105174;1270;61278;-75
2022/02/16 08:46:07;;;;;;;15.30;8.70;;;;;;;7.41;89.46;98419.09;105138;1270;74846;-74
2022/02/16 08:48:34;;;;;;;9.70;7.30;;;;;;;7.52;88.75;98416.33;105184;1270;69447;-75
2022/02/16 08:51:01;;;;;;;11.40;7.90;;;;;;;7.63;87.90;98411.88;105072;1270;73272;-74
2022/02/16 08:53:29;;;;;;;11.30;7.60;;;;;;;7.78;85.97;98408.22;104929;1270;61253;-74
2022/02/16 08:55:57;;;;;;;9.30;6.50;;;;;;;7.95;85.71;98405.03;105131;1270;61366;-75
2022/02/16 08:58:23;;;;;;;10.50;7.50;;;;;;;8.14;85.62;98396.16;105308;1270;76472;-73
2022/02/16 09:00:50;;;;;;;8.00;5.60;;;;;;;8.39;83.51;98394.15;105109;1270;69434;-73
2022/02/16 09:03:17;;;;;;;7.60;5.30;;;;;;;8.62;81.76;98390.98;105206;1270;74600;-73
2022/02/16 09:05:43;;;;;;;7.10;5.00;;;;;;;8.77;80.82;98389.99;105050;1271;61414;-73
2022/02/16 09:08:10;;;;;;;7.60;4.50;;;;;;;8.85;80.14;98385.36;105192;1270;61260;-74
2022/02/16 09:10:36;;;;;;;6.30;4.20;;;;;;;8.92;79.18;98386.80;105198;1270;76379;-73
2022/02/16 09:13:03;;;;;;;7.20;4.90;;;;;;;9.04;79.53;98383.67;105181;1270;69482;-73
2022/02/16 09:15:30;;;;;;;7.60;5.10;;;;;;;9.13;77.57;98378.41;105117;1270;73456;-74
2022/02/16 09:17:57;;;;;;;6.90;5.30;;;;;;;9.17;78.11;98371.91;105154;1270;61408;-73
2022/02/16 09:20:24;;;;;;;7.60;5.70;;;;;;;9.24;78.01;98362.23;105216;1270;61314;-73
2022/02/16 09:22:51;;;;;;;7.20;5.60;;;;;;;9.23;77.99;98361.75;105406;1270;75166;-73
2022/02/16 09:25:18;;;;;;;6.50;5.40;;;;;;;9.23;78.37;98361.73;105234;1270;70384;-75
2022/02/16 09:27:44;;;;;;;9.30;5.90;;;;;;;9.21;77.10;98359.19;105181;1270;61302;-75
2022/02/16 09:30:11;;;;;;;8.00;6.00;;;;;;;9.22;75.70;98359.85;105233;1270;61268;-75
2022/02/16 09:32:38;;;;;;;8.10;5.70;;;;;;;9.17;75.84;98358.99;105189;1270;61775;-73
2022/02/16 09:35:06;;;;;;;9.20;6.60;;;;;;;9.08;75.62;98358.55;105214;1270;76475;-73
2022/02/16 09:37:33;;;;;;;8.50;6.30;;;;;;;8.96;74.63;98352.13;105116;1270;70346;-73
2022/02/16 09:39:59;;;;;;;8.60;5.90;;;;;;;8.81;73.81;98351.29;105207;1270;61278;-73
2022/02/16 09:42:27;;;;;;;12.90;9.10;;;;;;;8.69;73.57;98348.91;105245;1270;61252;-74
2022/02/16 09:44:58;;;;;;;11.10;9.80;;;;;;;8.65;73.80;98347.77;105197;1270;61334;-73
2022/02/16 09:47:25;;;;;;;9.60;6.60;;;;;;;8.67;73.76;98351.52;105244;1270;75196;-74
2022/02/16 09:49:52;;;;;;;10.00;7.10;;;;;;;8.74;73.68;98344.27;105185;1270;70341;-74
2022/02/16 09:52:22;;;;;;;9.00;7.10;;;;;;;8.73;72.79;98342.22;104916;1270;74295;-73
2022/02/16 09:54:49;;;;;;;11.30;9.30;;;;;;;8.68;73.03;98340.83;104984;1271;61361;-73
2022/02/16 09:57:16;;;;;;;9.20;8.00;;;;;;;8.72;73.03;98343.02;105185;1270;61760;-73
2022/02/16 09:59:43;;;;;;;9.90;8.40;;;;;;;8.84;72.97;98336.70;105136;1270;75385;-75
2022/02/16 10:02:12;;;;;;;9.00;6.50;;;;;;;8.95;72.58;98328.70;105216;1270;70131;-74
2022/02/16 10:04:51;;;;;;;8.70;5.20;;;;;;;9.04;72.21;98321.13;105253;1270;74555;-75
2022/02/16 10:07:24;;;;;;;8.80;7.50;;;;;;;9.11;71.98;98316.17;105035;1270;61293;-75
2022/02/16 10:09:51;;;;;;;8.40;6.30;;;;;;;9.19;71.22;98312.61;105449;1270;61783;-74
2022/02/16 10:12:18;;;;;;;15.80;8.10;;;;;;;9.23;69.64;98301.65;105230;1270;75247;-74
2022/02/16 10:14:46;;;;;;;9.60;7.40;;;;;;;9.27;70.37;98303.84;105209;1270;69802;-74
2022/02/16 10:17:24;;;;;;;7.90;5.70;;;;;;;9.35;70.10;98295.98;105191;1270;72807;-78
2022/02/16 10:19:56;;;;;;;7.50;5.40;;;;;;;9.41;69.15;98290.73;105351;1270;61139;-75
2022/02/16 10:22:30;;;;;;;6.50;5.20;;;;;;;9.48;68.68;98280.51;105247;1270;61240;-75
2022/02/16 10:25:16;;;;;;;7.50;5.70;;;;;;;9.58;67.90;98273.77;105055;1270;75297;-73
2022/02/16 10:28:06;;;;;;;7.70;5.10;;;;;;;9.66;66.50;98269.08;105215;1270;68770;-75
2022/02/16 10:30:35;;;;;;;7.50;5.00;;;;;;;9.72;66.86;98264.72;105188;1270;73231;-73
2022/02/16 10:33:28;;;;;;;6.40;4.80;;;;;;;9.77;66.27;98253.91;105135;1270;61254;-73
2022/02/16 10:36:08;;;;;;;7.00;5.20;;;;;;;9.84;66.14;98246.95;105197;1270;61728;-73
2022/02/16 10:38:53;;;;;;;6.30;5.00;;;;;;;9.92;65.86;98241.41;105189;1270;75248;-74
2022/02/16 10:41:22;;;;;;;9.30;5.10;;;;;;;10.00;66.12;98235.77;105200;1270;68934;-73
2022/02/16 10:43:52;;;;;;;8.60;5.90;;;;;;;10.09;65.30;98230.17;105111;1270;73225;-73
2022/02/16 10:46:28;;;;;;;9.20;5.60;;;;;;;10.09;65.34;98222.15;105322;1270;61167;-73
2022/02/16 10:49:28;;;;;;;5.80;5.20;;;;;;;10.09;65.40;98220.40;105208;1270;61377;-73
2022/02/16 10:52:04;;;;;;;8.20;5.10;;;;;;;10.10;65.14;98211.05;104492;1276;75276;-74
2022/02/16 10:54:31;;;;;;;10.60;6.50;;;;;;;10.14;65.93;98200.87;104675;1276;69457;-73
2022/02/16 10:56:58;;;;;;;6.70;5.90;;;;;;;10.20;65.19;98192.23;104737;1276;74561;-73
2022/02/16 10:59:24;;;;;;;8.80;6.50;;;;;;;10.20;64.62;98188.65;104687;1276;61283;-74
2022/02/16 11:01:51;;;;;;;8.50;7.40;;;;;;;10.24;64.53;98181.22;104717;1276;61449;-73
2022/02/16 11:04:18;;;;;;;8.50;6.40;;;;;;;10.27;64.53;98180.83;104701;1276;74816;-73
2022/02/16 11:06:47;;;;;;;8.90;7.30;;;;;;;10.34;64.52;98176.73;104707;1276;68172;-73
2022/02/16 11:09:32;;;;;;;7.60;6.00;;;;;;;10.40;64.45;98167.42;104662;1277;71390;-73
2022/02/16 11:12:01;;;;;;;7.00;6.20;;;;;;;10.42;63.43;98166.55;104732;1276;61299;-74